| Date | Time | Temp. (oF) | Dew Point (oF) | Rel. Hum. (%) | Press. (in.) | Wind Dir. | Wind Speed (mph) | Hourly Rainfall (in.) |
|
|---|---|---|---|---|---|---|---|---|---|
| 1 | 01/17 | 00:00 | 21 | 20 | 98 | 29.97 | SSW | 6 | 0.00 |
| 2 | 01/16 | 23:00 | 21 | 20 | 97 | 30.00 | SSE | 2 | 0.01 |
| 3 | 01/16 | 22:00 | 21 | 19 | 94 | 30.04 | SE | 4 | 0.00 |
| 4 | 01/16 | 21:00 | 22 | 15 | 77 | 30.06 | SSE | 7 | 0.00 |
| 5 | 01/16 | 20:00 | 23 | 11 | 62 | 30.08 | SSE | 5 | 0.00 |
| 6 | 01/16 | 19:00 | 24 | 10 | 55 | 30.08 | SSE | 4 | 0.00 |
| 7 | 01/16 | 18:00 | 24 | 9 | 53 | 30.10 | ESE | 1 | 0.00 |
| 8 | 01/16 | 17:00 | 24 | 8 | 52 | 30.13 | S | 5 | 0.00 |
| 9 | 01/16 | 16:00 | 24 | 8 | 52 | 30.16 | S | 7 | 0.00 |
| 10 | 01/16 | 15:00 | 23 | 8 | 53 | 30.19 | SSW | 7 | 0.00 |
| 11 | 01/16 | 14:00 | 22 | 8 | 55 | 30.22 | SSW | 7 | 0.00 |
| 12 | 01/16 | 13:00 | 22 | 8 | 56 | 30.25 | SSW | 7 | 0.00 |
| 13 | 01/16 | 12:00 | 21 | 8 | 59 | 30.29 | SSW | 5 | 0.00 |
| 14 | 01/16 | 11:00 | 21 | 10 | 62 | 30.34 | NW | 3 | 0.00 |
| 15 | 01/16 | 10:00 | 19 | 9 | 65 | 30.35 | SSW | 3 | 0.00 |
| 16 | 01/16 | 09:00 | 17 | 8 | 70 | 30.35 | SSW | 7 | 0.00 |
| 17 | 01/16 | 08:00 | 13 | 5 | 73 | 30.36 | WSW | 3 | 0.00 |
| 18 | 01/16 | 07:00 | 13 | 5 | 72 | 30.35 | SW | 2 | 0.00 |
| 19 | 01/16 | 06:00 | 13 | 5 | 72 | 30.34 | SSW | 7 | 0.00 |
| 20 | 01/16 | 05:00 | 14 | 6 | 70 | 30.32 | SW | 2 | 0.00 |
| 21 | 01/16 | 04:00 | 14 | 5 | 69 | 30.31 | WSW | 3 | 0.00 |
| 22 | 01/16 | 03:00 | 14 | 5 | 68 | 30.31 | SSW | 3 | 0.00 |
| 23 | 01/16 | 02:00 | 15 | 5 | 66 | 30.29 | SW | 3 | 0.00 |
| 24 | 01/16 | 01:00 | 15 | 5 | 64 | 30.28 | WSW | 4 | 0.00 |